sensor_id;sensor_type;location;lat;lon;timestamp;pressure;altitude;pressure_sealevel;temperature;humidity
76216;BME280;65010;50.190;18.930;2023-05-06T00:01:09;98499.06;;;13.53;39.52
76216;BME280;65010;50.190;18.930;2023-05-06T00:04:18;98493.28;;;13.42;40.13
76216;BME280;65010;50.190;18.930;2023-05-06T00:07:23;98494.28;;;13.41;40.31
76216;BME280;65010;50.190;18.930;2023-05-06T00:10:30;98490.19;;;13.39;40.68
76216;BME280;65010;50.190;18.930;2023-05-06T00:13:36;98491.66;;;13.41;40.74
76216;BME280;65010;50.190;18.930;2023-05-06T00:16:45;98491.44;;;13.43;40.79
76216;BME280;65010;50.190;18.930;2023-05-06T00:19:52;98480.66;;;13.38;40.88
76216;BME280;65010;50.190;18.930;2023-05-06T00:23:01;98477.63;;;13.41;41.05
76216;BME280;65010;50.190;18.930;2023-05-06T00:26:06;98467.28;;;13.39;40.94
76216;BME280;65010;50.190;18.930;2023-05-06T00:29:13;98460.53;;;13.37;40.93
76216;BME280;65010;50.190;18.930;2023-05-06T00:32:21;98465.81;;;13.37;41.08
76216;BME280;65010;50.190;18.930;2023-05-06T00:35:27;98466.75;;;13.29;41.13
76216;BME280;65010;50.190;18.930;2023-05-06T00:38:33;98469.19;;;13.31;40.83
76216;BME280;65010;50.190;18.930;2023-05-06T00:41:42;98457.03;;;13.30;41.25
76216;BME280;65010;50.190;18.930;2023-05-06T00:44:48;98470.41;;;13.28;41.13
76216;BME280;65010;50.190;18.930;2023-05-06T00:47:58;98463.41;;;13.20;41.52
76216;BME280;65010;50.190;18.930;2023-05-06T00:51:04;98467.13;;;13.26;41.21
76216;BME280;65010;50.190;18.930;2023-05-06T00:54:13;98454.50;;;13.21;41.68
76216;BME280;65010;50.190;18.930;2023-05-06T00:57:19;98467.44;;;13.16;41.71
76216;BME280;65010;50.190;18.930;2023-05-06T01:00:26;98466.53;;;13.09;42.10
76216;BME280;65010;50.190;18.930;2023-05-06T01:03:35;98465.47;;;13.03;42.17
76216;BME280;65010;50.190;18.930;2023-05-06T01:06:49;98472.94;;;13.00;42.30
76216;BME280;65010;50.190;18.930;2023-05-06T01:10:12;98463.25;;;12.85;42.17
76216;BME280;65010;50.190;18.930;2023-05-06T01:13:34;98462.44;;;12.70;42.72
76216;BME280;65010;50.190;18.930;2023-05-06T01:16:53;98454.53;;;12.70;42.98
76216;BME280;65010;50.190;18.930;2023-05-06T01:20:07;98455.97;;;12.73;43.01
76216;BME280;65010;50.190;18.930;2023-05-06T01:23:20;98461.00;;;12.67;43.07
76216;BME280;65010;50.190;18.930;2023-05-06T01:26:26;98461.38;;;12.64;43.50
76216;BME280;65010;50.190;18.930;2023-05-06T01:29:37;98458.94;;;12.63;43.15
76216;BME280;65010;50.190;18.930;2023-05-06T01:32:59;98453.38;;;12.58;43.19
76216;BME280;65010;50.190;18.930;2023-05-06T01:36:21;98458.59;;;12.51;43.29
76216;BME280;65010;50.190;18.930;2023-05-06T01:39:38;98456.94;;;12.50;43.56
76216;BME280;65010;50.190;18.930;2023-05-06T01:42:48;98458.13;;;12.47;43.68
76216;BME280;65010;50.190;18.930;2023-05-06T01:45:55;98449.66;;;12.37;43.68
76216;BME280;65010;50.190;18.930;2023-05-06T01:49:04;98453.47;;;12.35;44.07
76216;BME280;65010;50.190;18.930;2023-05-06T01:52:14;98456.75;;;12.37;44.00
76216;BME280;65010;50.190;18.930;2023-05-06T01:55:24;98450.47;;;12.38;43.71
76216;BME280;65010;50.190;18.930;2023-05-06T01:58:29;98443.09;;;12.33;43.87
76216;BME280;65010;50.190;18.930;2023-05-06T02:01:36;98441.84;;;12.29;44.00
76216;BME280;65010;50.190;18.930;2023-05-06T02:04:41;98442.56;;;12.23;44.48
76216;BME280;65010;50.190;18.930;2023-05-06T02:07:48;98442.19;;;12.11;44.63
76216;BME280;65010;50.190;18.930;2023-05-06T02:11:00;98442.47;;;12.01;44.67
76216;BME280;65010;50.190;18.930;2023-05-06T02:14:07;98443.28;;;12.02;44.75
76216;BME280;65010;50.190;18.930;2023-05-06T02:17:13;98437.09;;;11.95;45.02
76216;BME280;65010;50.190;18.930;2023-05-06T02:20:19;98427.34;;;11.80;45.09
76216;BME280;65010;50.190;18.930;2023-05-06T02:23:25;98426.28;;;11.89;45.28
76216;BME280;65010;50.190;18.930;2023-05-06T02:26:34;98432.63;;;11.80;45.40
76216;BME280;65010;50.190;18.930;2023-05-06T02:29:40;98436.25;;;11.79;45.37
76216;BME280;65010;50.190;18.930;2023-05-06T02:32:46;98433.16;;;11.76;45.59
76216;BME280;65010;50.190;18.930;2023-05-06T02:35:52;98423.72;;;11.66;45.54
76216;BME280;65010;50.190;18.930;2023-05-06T02:38:59;98435.59;;;11.62;46.00
76216;BME280;65010;50.190;18.930;2023-05-06T02:42:07;98431.63;;;11.66;46.27
76216;BME280;65010;50.190;18.930;2023-05-06T02:45:15;98437.06;;;11.65;45.78
76216;BME280;65010;50.190;18.930;2023-05-06T02:48:21;98431.69;;;11.58;46.30
76216;BME280;65010;50.190;18.930;2023-05-06T02:51:27;98426.44;;;11.58;46.13
76216;BME280;65010;50.190;18.930;2023-05-06T02:54:35;98428.28;;;11.49;46.16
76216;BME280;65010;50.190;18.930;2023-05-06T02:57:44;98429.81;;;11.44;46.57
76216;BME280;65010;50.190;18.930;2023-05-06T03:00:51;98439.13;;;11.32;46.53
76216;BME280;65010;50.190;18.930;2023-05-06T03:03:57;98438.72;;;11.20;47.40
76216;BME280;65010;50.190;18.930;2023-05-06T03:07:03;98433.63;;;11.18;47.37
76216;BME280;65010;50.190;18.930;2023-05-06T03:10:10;98441.34;;;11.20;47.45
76216;BME280;65010;50.190;18.930;2023-05-06T03:13:18;98437.41;;;11.16;47.35
76216;BME280;65010;50.190;18.930;2023-05-06T03:16:25;98427.88;;;11.15;47.78
76216;BME280;65010;50.190;18.930;2023-05-06T03:19:33;98428.53;;;11.17;48.09
76216;BME280;65010;50.190;18.930;2023-05-06T03:22:42;98420.59;;;11.25;47.49
76216;BME280;65010;50.190;18.930;2023-05-06T03:25:48;98424.44;;;11.37;47.78
76216;BME280;65010;50.190;18.930;2023-05-06T03:28:58;98415.38;;;11.40;47.48
76216;BME280;65010;50.190;18.930;2023-05-06T03:32:05;98421.22;;;11.50;47.61
76216;BME280;65010;50.190;18.930;2023-05-06T03:35:17;98426.06;;;11.61;46.90
76216;BME280;65010;50.190;18.930;2023-05-06T03:38:28;98421.25;;;11.65;46.96
76216;BME280;65010;50.190;18.930;2023-05-06T03:41:38;98416.81;;;11.65;46.84
76216;BME280;65010;50.190;18.930;2023-05-06T03:44:47;98412.63;;;11.71;46.46
76216;BME280;65010;50.190;18.930;2023-05-06T03:47:54;98421.44;;;11.78;46.67
76216;BME280;65010;50.190;18.930;2023-05-06T03:51:00;98426.38;;;11.81;46.56
76216;BME280;65010;50.190;18.930;2023-05-06T03:54:07;98432.19;;;11.77;46.92
76216;BME280;65010;50.190;18.930;2023-05-06T03:57:14;98423.19;;;11.86;46.63
76216;BME280;65010;50.190;18.930;2023-05-06T04:00:23;98425.22;;;11.99;46.78
76216;BME280;65010;50.190;18.930;2023-05-06T04:03:29;98427.47;;;12.02;46.37
76216;BME280;65010;50.190;18.930;2023-05-06T04:06:36;98435.38;;;12.02;46.00
76216;BME280;65010;50.190;18.930;2023-05-06T04:09:42;98430.56;;;12.05;46.13
76216;BME280;65010;50.190;18.930;2023-05-06T04:12:49;98428.31;;;12.17;46.03
76216;BME280;65010;50.190;18.930;2023-05-06T04:16:03;98427.91;;;12.20;45.81
76216;BME280;65010;50.190;18.930;2023-05-06T04:19:15;98433.81;;;12.22;45.99
76216;BME280;65010;50.190;18.930;2023-05-06T04:22:22;98422.56;;;12.14;46.36
76216;BME280;65010;50.190;18.930;2023-05-06T04:25:29;98424.00;;;12.16;45.97
76216;BME280;65010;50.190;18.930;2023-05-06T04:28:37;98424.75;;;12.10;45.98
76216;BME280;65010;50.190;18.930;2023-05-06T04:31:48;98418.59;;;12.03;46.06
76216;BME280;65010;50.190;18.930;2023-05-06T04:34:56;98406.31;;;11.95;46.43
76216;BME280;65010;50.190;18.930;2023-05-06T04:38:03;98409.31;;;12.07;46.34
76216;BME280;65010;50.190;18.930;2023-05-06T04:41:09;98411.94;;;12.07;46.33
76216;BME280;65010;50.190;18.930;2023-05-06T04:44:16;98423.66;;;12.04;46.50
76216;BME280;65010;50.190;18.930;2023-05-06T04:47:27;98426.09;;;11.91;46.79
76216;BME280;65010;50.190;18.930;2023-05-06T04:50:34;98420.94;;;11.83;47.14
76216;BME280;65010;50.190;18.930;2023-05-06T04:53:40;98412.72;;;11.78;47.56
76216;BME280;65010;50.190;18.930;2023-05-06T04:56:46;98420.13;;;11.82;47.24
76216;BME280;65010;50.190;18.930;2023-05-06T04:59:54;98414.00;;;11.82;47.41
76216;BME280;65010;50.190;18.930;2023-05-06T05:03:04;98416.47;;;11.83;47.47
76216;BME280;65010;50.190;18.930;2023-05-06T05:06:10;98418.38;;;11.89;47.56
76216;BME280;65010;50.190;18.930;2023-05-06T05:09:18;98417.56;;;12.04;47.42
76216;BME280;65010;50.190;18.930;2023-05-06T05:12:24;98416.94;;;12.17;47.37
76216;BME280;65010;50.190;18.930;2023-05-06T05:15:31;98416.22;;;12.23;47.17
76216;BME280;65010;50.190;18.930;2023-05-06T05:18:40;98399.13;;;12.19;47.06
76216;BME280;65010;50.190;18.930;2023-05-06T05:21:52;98402.75;;;12.33;46.89
76216;BME280;65010;50.190;18.930;2023-05-06T05:25:00;98400.44;;;12.44;46.78
76216;BME280;65010;50.190;18.930;2023-05-06T05:28:10;98396.81;;;12.60;46.62
76216;BME280;65010;50.190;18.930;2023-05-06T05:31:17;98395.38;;;12.58;46.13
76216;BME280;65010;50.190;18.930;2023-05-06T05:34:26;98397.66;;;12.61;46.15
76216;BME280;65010;50.190;18.930;2023-05-06T05:37:33;98393.25;;;12.68;45.99
76216;BME280;65010;50.190;18.930;2023-05-06T05:40:40;98385.69;;;12.80;46.30
76216;BME280;65010;50.190;18.930;2023-05-06T05:43:46;98377.69;;;12.95;45.69
76216;BME280;65010;50.190;18.930;2023-05-06T05:46:53;98384.94;;;13.07;45.72
76216;BME280;65010;50.190;18.930;2023-05-06T05:50:02;98377.25;;;13.13;45.36
76216;BME280;65010;50.190;18.930;2023-05-06T05:53:10;98366.53;;;13.14;45.13
76216;BME280;65010;50.190;18.930;2023-05-06T05:56:16;98384.25;;;13.20;45.50
76216;BME280;65010;50.190;18.930;2023-05-06T05:59:24;98373.25;;;13.17;45.64
76216;BME280;65010;50.190;18.930;2023-05-06T06:02:34;98368.22;;;13.22;45.38
76216;BME280;65010;50.190;18.930;2023-05-06T06:05:44;98370.53;;;13.32;45.68
76216;BME280;65010;50.190;18.930;2023-05-06T06:08:51;98374.34;;;13.29;45.01
76216;BME280;65010;50.190;18.930;2023-05-06T06:11:58;98374.78;;;13.33;45.31
76216;BME280;65010;50.190;18.930;2023-05-06T06:15:07;98373.09;;;13.46;45.00
76216;BME280;65010;50.190;18.930;2023-05-06T06:18:16;98371.00;;;13.63;44.75
76216;BME280;65010;50.190;18.930;2023-05-06T06:21:25;98359.91;;;13.75;44.29
76216;BME280;65010;50.190;18.930;2023-05-06T06:24:31;98368.53;;;13.90;44.07
76216;BME280;65010;50.190;18.930;2023-05-06T06:27:38;98369.44;;;14.04;43.67
76216;BME280;65010;50.190;18.930;2023-05-06T06:30:45;98361.59;;;14.24;43.75
76216;BME280;65010;50.190;18.930;2023-05-06T06:33:51;98367.91;;;14.30;43.88
76216;BME280;65010;50.190;18.930;2023-05-06T06:37:01;98358.59;;;14.40;43.47
76216;BME280;65010;50.190;18.930;2023-05-06T06:40:11;98354.31;;;14.39;43.40
76216;BME280;65010;50.190;18.930;2023-05-06T06:43:18;98347.81;;;14.42;43.73
76216;BME280;65010;50.190;18.930;2023-05-06T06:46:31;98343.59;;;14.54;43.79
76216;BME280;65010;50.190;18.930;2023-05-06T06:49:38;98336.66;;;14.60;42.99
76216;BME280;65010;50.190;18.930;2023-05-06T06:52:48;98343.00;;;14.65;43.14
76216;BME280;65010;50.190;18.930;2023-05-06T06:55:55;98342.38;;;14.70;42.95
76216;BME280;65010;50.190;18.930;2023-05-06T06:59:01;98328.19;;;14.78;43.04
76216;BME280;65010;50.190;18.930;2023-05-06T07:02:07;98327.59;;;14.89;43.05
76216;BME280;65010;50.190;18.930;2023-05-06T07:05:17;98325.16;;;15.07;43.52
76216;BME280;65010;50.190;18.930;2023-05-06T07:08:26;98318.44;;;15.32;42.08
76216;BME280;65010;50.190;18.930;2023-05-06T07:11:32;98312.94;;;15.53;41.71
76216;BME280;65010;50.190;18.930;2023-05-06T07:14:38;98302.13;;;15.61;41.58
76216;BME280;65010;50.190;18.930;2023-05-06T07:17:44;98299.25;;;15.70;41.19
76216;BME280;65010;50.190;18.930;2023-05-06T07:20:51;98302.91;;;15.68;41.28
76216;BME280;65010;50.190;18.930;2023-05-06T07:24:02;98304.97;;;15.73;41.61
76216;BME280;65010;50.190;18.930;2023-05-06T07:27:09;98303.09;;;15.80;42.37
76216;BME280;65010;50.190;18.930;2023-05-06T07:30:17;98300.38;;;16.00;41.13
76216;BME280;65010;50.190;18.930;2023-05-06T07:33:25;98297.25;;;16.23;40.79
76216;BME280;65010;50.190;18.930;2023-05-06T07:36:35;98304.50;;;16.41;40.59
76216;BME280;65010;50.190;18.930;2023-05-06T07:39:48;98295.63;;;16.54;40.72
76216;BME280;65010;50.190;18.930;2023-05-06T07:42:56;98301.75;;;16.55;40.22
76216;BME280;65010;50.190;18.930;2023-05-06T07:46:08;98300.38;;;16.45;40.30
76216;BME280;65010;50.190;18.930;2023-05-06T07:49:14;98293.69;;;16.36;40.31
76216;BME280;65010;50.190;18.930;2023-05-06T07:52:22;98296.00;;;16.26;40.40
76216;BME280;65010;50.190;18.930;2023-05-06T07:55:31;98294.97;;;16.27;41.19
76216;BME280;65010;50.190;18.930;2023-05-06T07:58:39;98292.53;;;16.25;41.30
76216;BME280;65010;50.190;18.930;2023-05-06T08:01:45;98289.88;;;16.25;41.53
76216;BME280;65010;50.190;18.930;2023-05-06T08:04:51;98293.50;;;16.38;41.11
76216;BME280;65010;50.190;18.930;2023-05-06T08:07:58;98290.63;;;16.39;40.44
76216;BME280;65010;50.190;18.930;2023-05-06T08:11:07;98289.19;;;16.43;41.24
76216;BME280;65010;50.190;18.930;2023-05-06T08:14:13;98290.53;;;16.53;40.87
76216;BME280;65010;50.190;18.930;2023-05-06T08:17:19;98289.91;;;16.57;40.93
76216;BME280;65010;50.190;18.930;2023-05-06T08:20:25;98287.25;;;16.57;40.44
76216;BME280;65010;50.190;18.930;2023-05-06T08:23:32;98284.22;;;16.54;40.28
76216;BME280;65010;50.190;18.930;2023-05-06T08:26:40;98288.31;;;16.50;40.82
76216;BME280;65010;50.190;18.930;2023-05-06T08:29:47;98281.38;;;16.49;40.90
76216;BME280;65010;50.190;18.930;2023-05-06T08:32:53;98279.53;;;16.49;40.75
76216;BME280;65010;50.190;18.930;2023-05-06T08:35:59;98282.22;;;16.42;40.89
76216;BME280;65010;50.190;18.930;2023-05-06T08:39:05;98271.84;;;16.41;40.87
76216;BME280;65010;50.190;18.930;2023-05-06T08:42:14;98270.38;;;16.45;40.98
76216;BME280;65010;50.190;18.930;2023-05-06T08:45:20;98270.78;;;16.49;41.46
76216;BME280;65010;50.190;18.930;2023-05-06T08:48:29;98267.66;;;16.58;41.31
76216;BME280;65010;50.190;18.930;2023-05-06T08:51:37;98250.06;;;16.64;41.89
76216;BME280;65010;50.190;18.930;2023-05-06T08:54:50;98248.16;;;16.78;41.56
76216;BME280;65010;50.190;18.930;2023-05-06T08:58:06;98257.19;;;16.95;41.08
76216;BME280;65010;50.190;18.930;2023-05-06T09:01:13;98255.47;;;17.08;40.98
76216;BME280;65010;50.190;18.930;2023-05-06T09:04:20;98250.03;;;17.21;40.98
76216;BME280;65010;50.190;18.930;2023-05-06T09:07:27;98245.41;;;17.35;40.91
76216;BME280;65010;50.190;18.930;2023-05-06T09:10:41;98250.94;;;17.52;40.56
76216;BME280;65010;50.190;18.930;2023-05-06T09:14:06;98245.28;;;17.67;41.44
76216;BME280;65010;50.190;18.930;2023-05-06T09:17:17;98253.16;;;17.55;40.06
76216;BME280;65010;50.190;18.930;2023-05-06T09:20:32;98262.59;;;17.32;40.54
76216;BME280;65010;50.190;18.930;2023-05-06T09:23:38;98274.19;;;17.13;41.00
76216;BME280;65010;50.190;18.930;2023-05-06T09:26:45;98275.16;;;16.93;42.16
76216;BME280;65010;50.190;18.930;2023-05-06T09:30:02;98274.03;;;16.82;44.43
76216;BME280;65010;50.190;18.930;2023-05-06T09:33:10;98273.72;;;16.72;45.10
76216;BME280;65010;50.190;18.930;2023-05-06T09:36:16;98281.06;;;16.70;47.60
76216;BME280;65010;50.190;18.930;2023-05-06T09:39:24;98285.38;;;16.64;48.46
76216;BME280;65010;50.190;18.930;2023-05-06T09:42:30;98281.31;;;16.62;50.05
76216;BME280;65010;50.190;18.930;2023-05-06T09:45:42;98288.63;;;16.66;49.74
76216;BME280;65010;50.190;18.930;2023-05-06T09:48:50;98293.91;;;16.66;49.66
76216;BME280;65010;50.190;18.930;2023-05-06T09:51:59;98300.47;;;16.64;51.47
76216;BME280;65010;50.190;18.930;2023-05-06T09:55:06;98301.78;;;16.48;50.75
76216;BME280;65010;50.190;18.930;2023-05-06T09:58:16;98313.06;;;16.37;52.92
76216;BME280;65010;50.190;18.930;2023-05-06T10:01:29;98314.84;;;16.04;53.63
76216;BME280;65010;50.190;18.930;2023-05-06T10:04:42;98303.31;;;15.65;54.34
76216;BME280;65010;50.190;18.930;2023-05-06T10:07:51;98309.69;;;15.38;55.98
76216;BME280;65010;50.190;18.930;2023-05-06T10:11:09;98285.06;;;15.17;56.28
76216;BME280;65010;50.190;18.930;2023-05-06T10:14:21;98294.41;;;15.20;57.58
76216;BME280;65010;50.190;18.930;2023-05-06T10:17:34;98288.34;;;15.13;57.84
76216;BME280;65010;50.190;18.930;2023-05-06T10:20:50;98279.34;;;15.20;56.92
76216;BME280;65010;50.190;18.930;2023-05-06T10:24:04;98285.25;;;15.22;56.43
76216;BME280;65010;50.190;18.930;2023-05-06T10:27:17;98272.81;;;15.16;56.45
76216;BME280;65010;50.190;18.930;2023-05-06T10:30:29;98270.19;;;15.30;56.75
76216;BME280;65010;50.190;18.930;2023-05-06T10:33:44;98266.28;;;15.32;56.27
76216;BME280;65010;50.190;18.930;2023-05-06T10:41:00;98258.97;;;15.41;56.00
76216;BME280;65010;50.190;18.930;2023-05-06T10:44:08;98273.63;;;15.43;55.99
76216;BME280;65010;50.190;18.930;2023-05-06T10:47:17;98282.81;;;15.27;56.85
76216;BME280;65010;50.190;18.930;2023-05-06T10:50:29;98257.97;;;15.29;57.68
76216;BME280;65010;50.190;18.930;2023-05-06T10:53:59;98261.84;;;15.13;58.27
76216;BME280;65010;50.190;18.930;2023-05-06T10:57:10;98253.13;;;14.99;58.58
76216;BME280;65010;50.190;18.930;2023-05-06T11:00:19;98251.69;;;14.76;59.62
76216;BME280;65010;50.190;18.930;2023-05-06T11:03:26;98251.88;;;14.75;60.09
76216;BME280;65010;50.190;18.930;2023-05-06T11:07:06;98243.91;;;14.68;61.97
76216;BME280;65010;50.190;18.930;2023-05-06T11:10:13;98249.44;;;14.80;61.69
76216;BME280;65010;50.190;18.930;2023-05-06T11:13:23;98245.34;;;14.71;61.08
76216;BME280;65010;50.190;18.930;2023-05-06T11:16:46;98250.41;;;14.52;60.89
76216;BME280;65010;50.190;18.930;2023-05-06T11:20:22;98251.00;;;14.34;61.82
76216;BME280;65010;50.190;18.930;2023-05-06T11:27:19;98249.16;;;14.41;62.57
76216;BME280;65010;50.190;18.930;2023-05-06T11:30:28;98249.13;;;14.21;63.66
76216;BME280;65010;50.190;18.930;2023-05-06T11:33:35;98247.66;;;14.05;63.27
76216;BME280;65010;50.190;18.930;2023-05-06T11:36:51;98248.41;;;13.86;64.16
76216;BME280;65010;50.190;18.930;2023-05-06T11:40:15;98241.63;;;13.70;63.84
76216;BME280;65010;50.190;18.930;2023-05-06T11:43:21;98249.06;;;13.60;65.01
76216;BME280;65010;50.190;18.930;2023-05-06T11:46:32;98250.84;;;13.53;65.55
76216;BME280;65010;50.190;18.930;2023-05-06T11:49:43;98246.22;;;13.61;64.80
76216;BME280;65010;50.190;18.930;2023-05-06T11:52:51;98260.59;;;13.52;65.33
76216;BME280;65010;50.190;18.930;2023-05-06T11:56:02;98267.25;;;13.41;66.03
76216;BME280;65010;50.190;18.930;2023-05-06T11:59:12;98274.41;;;13.19;66.72
76216;BME280;65010;50.190;18.930;2023-05-06T12:02:26;98275.69;;;13.02;67.53
76216;BME280;65010;50.190;18.930;2023-05-06T12:05:59;98259.41;;;12.70;67.83
76216;BME280;65010;50.190;18.930;2023-05-06T12:09:20;98283.00;;;12.78;67.89
76216;BME280;65010;50.190;18.930;2023-05-06T12:12:34;98270.13;;;12.68;67.57
76216;BME280;65010;50.190;18.930;2023-05-06T12:15:45;98283.00;;;12.78;67.28
76216;BME280;65010;50.190;18.930;2023-05-06T12:18:53;98290.97;;;12.85;66.79
76216;BME280;65010;50.190;18.930;2023-05-06T12:22:15;98287.38;;;12.93;66.32
76216;BME280;65010;50.190;18.930;2023-05-06T12:25:22;98284.84;;;12.78;66.68
76216;BME280;65010;50.190;18.930;2023-05-06T12:28:34;98274.34;;;12.84;66.93
76216;BME280;65010;50.190;18.930;2023-05-06T12:31:45;98280.97;;;13.02;66.72
76216;BME280;65010;50.190;18.930;2023-05-06T12:34:53;98281.41;;;13.05;66.38
76216;BME280;65010;50.190;18.930;2023-05-06T12:38:16;98271.84;;;13.04;65.91
76216;BME280;65010;50.190;18.930;2023-05-06T12:41:34;98286.38;;;13.15;65.92
76216;BME280;65010;50.190;18.930;2023-05-06T12:44:47;98271.22;;;13.02;65.75
76216;BME280;65010;50.190;18.930;2023-05-06T12:47:56;98282.72;;;13.16;65.81
76216;BME280;65010;50.190;18.930;2023-05-06T12:51:17;98276.50;;;13.31;65.17
76216;BME280;65010;50.190;18.930;2023-05-06T12:54:30;98266.22;;;13.42;65.17
76216;BME280;65010;50.190;18.930;2023-05-06T12:57:38;98277.41;;;13.73;64.40
76216;BME280;65010;50.190;18.930;2023-05-06T13:00:47;98282.19;;;13.97;63.49
76216;BME280;65010;50.190;18.930;2023-05-06T13:03:54;98270.88;;;14.17;62.49
76216;BME280;65010;50.190;18.930;2023-05-06T13:07:02;98286.97;;;14.35;62.24
76216;BME280;65010;50.190;18.930;2023-05-06T13:10:08;98289.69;;;14.55;61.47
76216;BME280;65010;50.190;18.930;2023-05-06T13:13:22;98283.19;;;14.64;61.47
76216;BME280;65010;50.190;18.930;2023-05-06T13:16:31;98281.75;;;14.62;60.93
76216;BME280;65010;50.190;18.930;2023-05-06T13:19:42;98281.94;;;14.54;61.74
76216;BME280;65010;50.190;18.930;2023-05-06T13:22:48;98281.94;;;14.54;61.27
76216;BME280;65010;50.190;18.930;2023-05-06T13:25:57;98293.13;;;14.49;61.85
76216;BME280;65010;50.190;18.930;2023-05-06T13:29:08;98285.22;;;14.62;61.56
76216;BME280;65010;50.190;18.930;2023-05-06T13:32:17;98287.03;;;14.62;61.82
76216;BME280;65010;50.190;18.930;2023-05-06T13:35:23;98288.88;;;14.68;61.58
76216;BME280;65010;50.190;18.930;2023-05-06T13:38:29;98287.44;;;14.59;62.11
76216;BME280;65010;50.190;18.930;2023-05-06T13:41:35;98293.13;;;14.56;62.70
76216;BME280;65010;50.190;18.930;2023-05-06T13:44:42;98283.38;;;14.63;62.54
76216;BME280;65010;50.190;18.930;2023-05-06T13:47:50;98290.31;;;14.71;62.54
76216;BME280;65010;50.190;18.930;2023-05-06T13:50:57;98270.63;;;14.86;61.93
76216;BME280;65010;50.190;18.930;2023-05-06T13:54:03;98274.47;;;15.24;62.56
76216;BME280;65010;50.190;18.930;2023-05-06T13:57:09;98273.81;;;15.55;61.87
76216;BME280;65010;50.190;18.930;2023-05-06T14:00:15;98267.44;;;15.83;60.21
76216;BME280;65010;50.190;18.930;2023-05-06T14:03:25;98267.97;;;16.05;59.93
76216;BME280;65010;50.190;18.930;2023-05-06T14:06:30;98264.66;;;16.10;58.43
76216;BME280;65010;50.190;18.930;2023-05-06T14:09:37;98275.44;;;16.21;59.07
76216;BME280;65010;50.190;18.930;2023-05-06T14:12:42;98265.31;;;16.37;59.46
76216;BME280;65010;50.190;18.930;2023-05-06T14:15:49;98268.50;;;16.52;58.18
76216;BME280;65010;50.190;18.930;2023-05-06T14:18:58;98269.84;;;16.68;57.21
76216;BME280;65010;50.190;18.930;2023-05-06T14:22:05;98269.16;;;16.79;55.87
76216;BME280;65010;50.190;18.930;2023-05-06T14:25:10;98267.47;;;16.85;56.12
76216;BME280;65010;50.190;18.930;2023-05-06T14:28:17;98265.66;;;16.85;56.83
76216;BME280;65010;50.190;18.930;2023-05-06T14:31:23;98258.66;;;17.16;55.80
76216;BME280;65010;50.190;18.930;2023-05-06T14:34:33;98247.47;;;17.51;56.67
76216;BME280;65010;50.190;18.930;2023-05-06T14:37:39;98243.53;;;18.09;55.32
76216;BME280;65010;50.190;18.930;2023-05-06T14:40:45;98250.34;;;18.65;52.47
76216;BME280;65010;50.190;18.930;2023-05-06T14:43:51;98244.81;;;19.26;51.56
76216;BME280;65010;50.190;18.930;2023-05-06T14:50:08;98233.53;;;20.23;48.70
76216;BME280;65010;50.190;18.930;2023-05-06T14:53:15;98240.28;;;20.60;46.66
76216;BME280;65010;50.190;18.930;2023-05-06T14:56:21;98233.97;;;20.83;46.28
76216;BME280;65010;50.190;18.930;2023-05-06T14:59:27;98243.53;;;20.96;44.54
76216;BME280;65010;50.190;18.930;2023-05-06T15:02:33;98241.09;;;21.28;45.73
76216;BME280;65010;50.190;18.930;2023-05-06T15:05:42;98244.16;;;21.37;43.02
76216;BME280;65010;50.190;18.930;2023-05-06T15:08:48;98245.69;;;21.33;43.18
76216;BME280;65010;50.190;18.930;2023-05-06T15:11:55;98254.91;;;21.42;41.55
76216;BME280;65010;50.190;18.930;2023-05-06T15:15:01;98255.94;;;21.19;42.16
76216;BME280;65010;50.190;18.930;2023-05-06T15:18:08;98262.81;;;21.15;43.57
76216;BME280;65010;50.190;18.930;2023-05-06T15:21:17;98264.53;;;21.04;43.38
76216;BME280;65010;50.190;18.930;2023-05-06T15:24:23;98267.28;;;20.92;44.04
76216;BME280;65010;50.190;18.930;2023-05-06T15:27:29;98256.78;;;20.74;42.82
76216;BME280;65010;50.190;18.930;2023-05-06T15:30:36;98263.28;;;20.78;44.31
76216;BME280;65010;50.190;18.930;2023-05-06T15:33:41;98269.69;;;20.94;44.69
76216;BME280;65010;50.190;18.930;2023-05-06T15:36:52;98260.53;;;20.73;42.76
76216;BME280;65010;50.190;18.930;2023-05-06T15:39:58;98272.06;;;20.44;42.90
76216;BME280;65010;50.190;18.930;2023-05-06T15:43:04;98270.44;;;20.15;44.53
76216;BME280;65010;50.190;18.930;2023-05-06T15:46:10;98276.88;;;19.90;45.34
76216;BME280;65010;50.190;18.930;2023-05-06T15:49:17;98274.38;;;19.72;46.65
76216;BME280;65010;50.190;18.930;2023-05-06T15:52:28;98270.09;;;19.23;46.50
76216;BME280;65010;50.190;18.930;2023-05-06T15:55:34;98274.34;;;18.89;46.65
76216;BME280;65010;50.190;18.930;2023-05-06T15:58:54;98270.34;;;18.68;47.88
76216;BME280;65010;50.190;18.930;2023-05-06T16:02:00;98273.38;;;18.41;47.40
76216;BME280;65010;50.190;18.930;2023-05-06T16:05:09;98272.47;;;18.48;48.54
76216;BME280;65010;50.190;18.930;2023-05-06T16:08:18;98285.38;;;18.51;48.14
76216;BME280;65010;50.190;18.930;2023-05-06T16:11:24;98274.91;;;18.19;48.41
76216;BME280;65010;50.190;18.930;2023-05-06T16:14:32;98283.38;;;17.97;48.46
76216;BME280;65010;50.190;18.930;2023-05-06T16:17:38;98283.81;;;17.76;49.26
76216;BME280;65010;50.190;18.930;2023-05-06T16:20:44;98285.84;;;17.55;49.89
76216;BME280;65010;50.190;18.930;2023-05-06T16:23:53;98291.16;;;17.37;51.22
76216;BME280;65010;50.190;18.930;2023-05-06T16:26:59;98283.06;;;17.25;51.66
76216;BME280;65010;50.190;18.930;2023-05-06T16:30:08;98288.59;;;17.23;51.72
76216;BME280;65010;50.190;18.930;2023-05-06T16:33:15;98282.06;;;17.01;51.67
76216;BME280;65010;50.190;18.930;2023-05-06T16:36:20;98289.81;;;17.02;52.76
76216;BME280;65010;50.190;18.930;2023-05-06T16:39:30;98290.41;;;17.04;52.98